createdAt,value
2022-12-03T00:02:13.567Z,13.77
2022-12-03T00:04:40.467Z,15.38
2022-12-03T00:07:07.511Z,12.38
2022-12-03T00:09:34.254Z,12.95
2022-12-03T00:12:00.836Z,14.60
2022-12-03T00:14:27.588Z,14.50
2022-12-03T00:16:54.033Z,14.57
2022-12-03T00:19:24.105Z,14.77
2022-12-03T00:21:50.850Z,15.85
2022-12-03T00:24:17.611Z,15.77
2022-12-03T00:26:44.357Z,16.42
2022-12-03T00:29:11.493Z,17.50
2022-12-03T00:31:38.085Z,14.27
2022-12-03T00:34:04.852Z,15.52
2022-12-03T00:36:31.485Z,16.40
2022-12-03T00:38:58.343Z,15.20
2022-12-03T00:41:24.825Z,15.15
2022-12-03T00:43:51.761Z,14.05
2022-12-03T00:46:21.597Z,15.73
2022-12-03T00:48:48.458Z,16.20
2022-12-03T00:51:15.075Z,16.40
2022-12-03T00:53:41.968Z,16.05
2022-12-03T00:56:08.665Z,17.10
2022-12-03T00:58:35.203Z,17.05
2022-12-03T01:01:01.815Z,19.15
2022-12-03T01:03:29.235Z,17.60
2022-12-03T01:05:55.743Z,16.95
2022-12-03T01:08:22.532Z,19.27
2022-12-03T01:10:50.065Z,19.00
2022-12-03T01:13:16.554Z,21.00
2022-12-03T01:15:43.802Z,21.13
2022-12-03T01:18:10.521Z,19.30
2022-12-03T01:20:38.427Z,18.42
2022-12-03T01:23:05.839Z,21.00
2022-12-03T01:25:32.378Z,20.00
2022-12-03T01:27:59.706Z,18.40
2022-12-03T01:30:26.316Z,19.80
2022-12-03T01:32:52.750Z,20.42
2022-12-03T01:35:20.035Z,19.92
2022-12-03T01:37:46.687Z,21.63
2022-12-03T01:40:19.645Z,22.20
2022-12-03T01:43:06.851Z,20.50
2022-12-03T01:45:53.678Z,21.55
2022-12-03T01:48:40.921Z,22.15
2022-12-03T01:51:27.329Z,22.48
2022-12-03T01:54:19.720Z,24.02
2022-12-03T01:57:18.491Z,21.08
2022-12-03T01:59:45.358Z,21.88
2022-12-03T02:02:14.249Z,23.77
2022-12-03T02:04:40.992Z,21.73
2022-12-03T02:07:23.018Z,22.20
2022-12-03T02:09:50.238Z,21.40
2022-12-03T02:12:20.131Z,21.42
2022-12-03T02:14:47.230Z,20.73
2022-12-03T02:17:13.992Z,23.52
2022-12-03T02:19:40.454Z,23.63
2022-12-03T02:22:26.696Z,23.20
2022-12-03T02:24:59.462Z,22.38
2022-12-03T02:27:28.480Z,24.75
2022-12-03T02:29:55.507Z,26.60
2022-12-03T02:32:23.367Z,25.63
2022-12-03T02:34:51.934Z,24.75
2022-12-03T02:37:28.117Z,24.73
2022-12-03T02:40:00.234Z,28.60
2022-12-03T02:42:36.981Z,26.50
2022-12-03T02:45:09.081Z,24.38
2022-12-03T02:47:41.354Z,28.17
2022-12-03T02:50:09.805Z,24.70
2022-12-03T02:52:37.225Z,26.27
2022-12-03T02:55:06.080Z,25.50
2022-12-03T02:57:35.080Z,25.20
2022-12-03T03:00:02.272Z,28.70
2022-12-03T03:02:29.143Z,24.65
2022-12-03T03:04:57.225Z,24.25
2022-12-03T03:07:23.849Z,24.73
2022-12-03T03:09:50.633Z,27.48
2022-12-03T03:12:17.530Z,25.05
2022-12-03T03:14:44.103Z,26.25
2022-12-03T03:17:11.729Z,24.42
2022-12-03T03:19:38.206Z,25.27
2022-12-03T03:22:05.662Z,25.25
2022-12-03T03:24:32.474Z,26.08
2022-12-03T03:26:59.222Z,26.65
2022-12-03T03:29:26.481Z,23.77
2022-12-03T03:31:53.250Z,26.42
2022-12-03T03:34:20.532Z,23.42
2022-12-03T03:36:47.317Z,26.65
2022-12-03T03:39:14.682Z,24.73
2022-12-03T03:41:42.933Z,25.73
2022-12-03T03:44:10.127Z,24.65
2022-12-03T03:46:38.511Z,24.00
2022-12-03T03:49:07.007Z,23.17
2022-12-03T03:51:35.175Z,27.52
2022-12-03T03:54:04.369Z,24.67
2022-12-03T03:56:32.398Z,25.02
2022-12-03T03:58:59.243Z,26.02
2022-12-03T04:01:26.688Z,25.80
2022-12-03T04:03:54.391Z,25.17
2022-12-03T04:06:21.009Z,23.50
2022-12-03T04:08:47.926Z,26.08
2022-12-03T04:11:33.871Z,24.85
2022-12-03T04:14:00.469Z,25.85
2022-12-03T04:16:27.699Z,26.50
2022-12-03T04:18:54.513Z,23.70
2022-12-03T04:21:42.360Z,24.20
2022-12-03T04:24:10.853Z,28.63
2022-12-03T04:26:56.848Z,26.85
2022-12-03T04:29:23.838Z,27.30
2022-12-03T04:32:08.989Z,27.75
2022-12-03T04:34:54.728Z,25.92
2022-12-03T04:37:22.223Z,28.45
2022-12-03T04:39:48.987Z,25.75
2022-12-03T04:42:15.456Z,25.30
2022-12-03T04:44:42.448Z,24.58
2022-12-03T04:47:09.078Z,29.23
2022-12-03T04:49:39.161Z,30.23
2022-12-03T04:52:06.019Z,28.75
2022-12-03T04:54:33.001Z,26.00
2022-12-03T04:56:59.700Z,26.75
2022-12-03T04:59:26.262Z,25.58
2022-12-03T05:01:53.790Z,27.42
2022-12-03T05:04:20.309Z,26.83
2022-12-03T05:06:47.379Z,27.38
2022-12-03T05:09:14.795Z,30.35
2022-12-03T05:11:41.898Z,25.58
2022-12-03T05:14:09.890Z,25.95
2022-12-03T05:16:37.281Z,30.13
2022-12-03T05:19:06.182Z,28.55
2022-12-03T05:21:32.635Z,27.38
2022-12-03T05:23:59.537Z,31.40
2022-12-03T05:26:26.351Z,28.35
2022-12-03T05:28:53.139Z,27.90
2022-12-03T05:31:19.703Z,28.10
2022-12-03T05:33:46.241Z,28.90
2022-12-03T05:36:13.259Z,27.58
2022-12-03T05:38:39.833Z,30.88
2022-12-03T05:41:27.175Z,25.75
2022-12-03T05:43:53.737Z,32.95
2022-12-03T05:46:20.975Z,30.27
2022-12-03T05:48:48.072Z,31.48
2022-12-03T05:51:14.829Z,30.35
2022-12-03T05:53:41.298Z,31.67
2022-12-03T05:56:08.331Z,30.52
2022-12-03T05:58:34.919Z,31.63
2022-12-03T06:01:01.830Z,32.35
2022-12-03T06:03:28.704Z,31.65
2022-12-03T06:05:55.284Z,31.35
2022-12-03T06:08:22.113Z,35.92
2022-12-03T06:10:48.969Z,35.47
2022-12-03T06:13:15.848Z,34.58
2022-12-03T06:15:44.140Z,34.20
2022-12-03T06:18:11.262Z,33.22
2022-12-03T06:20:38.974Z,30.58
2022-12-03T06:23:05.410Z,31.65
2022-12-03T06:25:32.353Z,33.58
2022-12-03T06:27:58.804Z,34.83
2022-12-03T06:30:25.508Z,32.28
2022-12-03T06:32:52.574Z,35.80
2022-12-03T06:35:19.859Z,34.05
2022-12-03T06:37:48.838Z,34.92
2022-12-03T06:40:16.763Z,33.60
2022-12-03T06:42:43.246Z,34.40
2022-12-03T06:45:10.546Z,35.17
2022-12-03T06:47:37.243Z,36.10
2022-12-03T06:50:06.042Z,32.33
2022-12-03T06:52:32.741Z,30.67
2022-12-03T06:54:59.472Z,37.67
2022-12-03T06:57:26.552Z,35.60
2022-12-03T06:59:53.173Z,34.28
2022-12-03T07:02:20.084Z,33.25
2022-12-03T07:04:46.763Z,35.22
2022-12-03T07:07:14.530Z,35.30
2022-12-03T07:09:40.977Z,32.53
2022-12-03T07:12:07.879Z,34.17
2022-12-03T07:14:34.714Z,35.78
2022-12-03T07:17:01.864Z,34.22
2022-12-03T07:19:32.585Z,36.72
2022-12-03T07:22:00.360Z,34.47
2022-12-03T07:24:27.213Z,36.88
2022-12-03T07:26:54.078Z,37.55
2022-12-03T07:29:21.221Z,37.35
2022-12-03T07:31:47.964Z,39.22
2022-12-03T07:34:15.414Z,39.35
2022-12-03T07:36:41.888Z,35.17
2022-12-03T07:39:08.596Z,39.75
2022-12-03T07:41:34.981Z,39.25
2022-12-03T07:44:01.789Z,41.88
2022-12-03T07:46:28.379Z,41.70
2022-12-03T07:48:55.532Z,39.47
2022-12-03T07:51:25.078Z,37.15
2022-12-03T07:53:53.818Z,34.45
2022-12-03T07:56:20.502Z,38.55
2022-12-03T07:58:46.989Z,37.20
2022-12-03T08:01:13.679Z,39.28
2022-12-03T08:03:43.082Z,43.00
2022-12-03T08:06:10.077Z,43.08
2022-12-03T08:08:36.891Z,41.92
2022-12-03T08:11:03.766Z,45.15
2022-12-03T08:13:30.253Z,39.92
2022-12-03T08:16:00.658Z,41.17
2022-12-03T08:20:54.588Z,35.97
2022-12-03T08:23:24.433Z,43.42
2022-12-03T08:25:52.797Z,50.63
2022-12-03T08:28:26.477Z,40.90
2022-12-03T08:31:00.965Z,42.65
2022-12-03T08:33:35.470Z,45.25
2022-12-03T08:36:33.812Z,44.92
2022-12-03T08:39:34.275Z,39.70
2022-12-03T08:42:26.255Z,46.60
2022-12-03T08:44:53.303Z,37.80
2022-12-03T08:47:22.310Z,42.95
2022-12-03T08:49:55.355Z,39.00
2022-12-03T08:52:30.297Z,40.17
2022-12-03T08:54:57.216Z,40.88
2022-12-03T08:57:26.596Z,42.50
2022-12-03T08:59:58.535Z,37.75
2022-12-03T09:02:31.988Z,41.33
2022-12-03T09:04:59.512Z,42.17
2022-12-03T09:07:26.378Z,37.75
2022-12-03T09:09:53.301Z,40.70
2022-12-03T09:12:20.159Z,39.20
2022-12-03T09:14:46.999Z,37.38
2022-12-03T09:17:16.177Z,38.22
2022-12-03T09:19:46.226Z,43.55
2022-12-03T09:22:13.556Z,38.10
2022-12-03T09:24:41.964Z,38.88
2022-12-03T09:27:08.918Z,38.28
2022-12-03T09:29:35.679Z,40.35
2022-12-03T09:32:02.530Z,38.70
2022-12-03T09:34:29.090Z,38.38
2022-12-03T09:36:55.790Z,39.58
2022-12-03T09:39:22.597Z,38.58
2022-12-03T09:41:49.513Z,37.90
2022-12-03T09:44:18.227Z,36.40
2022-12-03T09:46:46.551Z,39.72
2022-12-03T09:49:16.434Z,35.55
2022-12-03T09:51:44.157Z,39.00
2022-12-03T09:54:22.112Z,40.75
2022-12-03T09:56:48.623Z,36.08
2022-12-03T09:59:16.195Z,39.45
2022-12-03T10:01:43.720Z,44.30
2022-12-03T10:04:10.667Z,40.42
2022-12-03T10:06:43.918Z,36.83
2022-12-03T10:09:15.012Z,36.90
2022-12-03T10:11:41.503Z,36.67
2022-12-03T10:14:14.359Z,36.92
2022-12-03T10:16:42.172Z,38.75
2022-12-03T10:19:16.084Z,38.17
2022-12-03T10:21:42.682Z,38.30
2022-12-03T10:24:30.765Z,34.45
2022-12-03T10:27:00.325Z,37.95
2022-12-03T10:29:34.491Z,38.28
2022-12-03T10:32:02.809Z,39.22
2022-12-03T10:34:45.907Z,36.00
2022-12-03T10:37:22.751Z,32.53
2022-12-03T10:40:11.218Z,35.55
2022-12-03T10:42:40.937Z,33.53
2022-12-03T10:45:21.081Z,34.30
2022-12-03T10:48:06.331Z,37.35
2022-12-03T10:50:34.448Z,36.13
2022-12-03T10:53:01.062Z,40.65
2022-12-03T10:55:33.949Z,39.92
2022-12-03T10:58:01.079Z,36.60
2022-12-03T11:00:27.710Z,37.10
2022-12-03T11:02:57.038Z,39.67
2022-12-03T11:05:28.302Z,39.40
2022-12-03T11:07:55.497Z,39.38
2022-12-03T11:10:22.451Z,36.75
2022-12-03T11:13:28.795Z,35.60
2022-12-03T11:15:56.456Z,40.63
2022-12-03T11:18:36.012Z,38.63
2022-12-03T11:21:07.931Z,37.92
2022-12-03T11:23:46.924Z,43.83
2022-12-03T11:26:19.573Z,38.90
2022-12-03T11:28:46.410Z,39.78
2022-12-03T11:31:43.103Z,40.00
2022-12-03T11:34:22.584Z,39.15
2022-12-03T11:37:11.172Z,44.00
2022-12-03T11:39:50.934Z,40.72
2022-12-03T11:42:26.549Z,40.97
2022-12-03T11:45:05.487Z,41.58
2022-12-03T11:47:42.397Z,42.90
2022-12-03T11:50:23.887Z,44.28
2022-12-03T11:53:02.035Z,44.90
2022-12-03T11:55:44.615Z,49.25
2022-12-03T11:58:26.347Z,175.35
2022-12-03T12:00:57.962Z,123.72
2022-12-03T12:03:33.079Z,185.43
2022-12-03T12:06:03.256Z,85.50
2022-12-03T12:08:31.477Z,50.88
2022-12-03T12:10:58.414Z,46.42
2022-12-03T12:13:31.316Z,40.13
2022-12-03T12:15:59.228Z,34.78
2022-12-03T12:18:55.117Z,44.40
2022-12-03T12:21:41.523Z,43.72
2022-12-03T12:24:45.114Z,39.55
2022-12-03T12:27:22.424Z,43.50
2022-12-03T12:29:54.942Z,43.83
2022-12-03T12:32:29.337Z,40.08
2022-12-03T12:35:16.792Z,40.85
2022-12-03T12:37:55.003Z,45.38
2022-12-03T12:40:28.829Z,44.95
2022-12-03T12:43:11.870Z,38.97
2022-12-03T12:45:42.310Z,40.30
2022-12-03T12:48:24.112Z,42.33
2022-12-03T12:50:58.301Z,36.08
2022-12-03T12:53:34.395Z,38.05
2022-12-03T12:56:26.609Z,39.08
2022-12-03T12:58:53.625Z,38.55
2022-12-03T13:01:24.821Z,40.38
2022-12-03T13:03:52.786Z,40.28
2022-12-03T13:06:26.663Z,43.10
2022-12-03T13:08:54.004Z,41.50
2022-12-03T13:11:42.329Z,39.55
2022-12-03T13:14:19.216Z,39.33
2022-12-03T13:16:48.566Z,35.95
2022-12-03T13:19:27.040Z,39.20
2022-12-03T13:21:58.684Z,39.10
2022-12-03T13:24:36.789Z,38.50
2022-12-03T13:27:23.113Z,39.85
2022-12-03T13:29:55.951Z,34.65
2022-12-03T13:32:27.969Z,39.05
2022-12-03T13:35:03.064Z,38.22
2022-12-03T13:37:31.444Z,36.92
2022-12-03T13:40:06.157Z,39.28
2022-12-03T13:42:41.456Z,36.22
2022-12-03T13:45:15.041Z,35.63
2022-12-03T13:47:46.016Z,33.60
2022-12-03T13:50:35.163Z,40.47
2022-12-03T13:53:30.007Z,36.05
2022-12-03T13:56:15.525Z,39.65
2022-12-03T13:58:42.340Z,36.88
2022-12-03T14:01:09.123Z,36.47
2022-12-03T14:03:36.583Z,34.50
2022-12-03T14:06:06.394Z,34.70
2022-12-03T14:08:33.451Z,33.78
2022-12-03T14:11:00.934Z,38.22
2022-12-03T14:13:28.071Z,36.15
2022-12-03T14:15:55.359Z,35.33
2022-12-03T14:18:22.857Z,34.83
2022-12-03T14:20:50.889Z,30.58
2022-12-03T14:23:17.791Z,35.33
2022-12-03T14:25:45.238Z,32.55
2022-12-03T14:28:12.168Z,33.30
2022-12-03T14:30:38.908Z,33.45
2022-12-03T14:33:05.434Z,34.72
2022-12-03T14:35:32.691Z,33.55
2022-12-03T14:37:59.474Z,31.90
2022-12-03T14:40:27.665Z,34.00
2022-12-03T14:43:02.203Z,36.45
2022-12-03T14:45:29.898Z,34.33
2022-12-03T14:47:56.916Z,34.25
2022-12-03T14:50:25.394Z,39.78
2022-12-03T14:52:53.125Z,37.53
2022-12-03T14:55:19.729Z,41.88
2022-12-03T14:57:46.865Z,37.78
2022-12-03T15:00:14.343Z,35.97
2022-12-03T15:02:41.195Z,42.28
2022-12-03T15:05:08.640Z,40.63
2022-12-03T15:07:35.677Z,44.72
2022-12-03T15:10:02.314Z,35.33
2022-12-03T15:12:29.070Z,46.58
2022-12-03T15:14:55.718Z,40.95
2022-12-03T15:17:30.914Z,38.28
2022-12-03T15:19:58.785Z,36.88
2022-12-03T15:22:25.220Z,41.50
2022-12-03T15:24:52.088Z,39.60
2022-12-03T15:27:18.828Z,36.47
2022-12-03T15:29:45.406Z,33.47
2022-12-03T15:32:13.159Z,35.00
2022-12-03T15:34:39.551Z,37.05
2022-12-03T15:37:06.461Z,34.88
2022-12-03T15:39:35.562Z,34.10
2022-12-03T15:42:02.339Z,37.35
2022-12-03T15:44:28.916Z,36.72
2022-12-03T15:46:55.614Z,34.78
2022-12-03T15:49:22.796Z,35.00
2022-12-03T15:51:49.303Z,39.58
2022-12-03T15:54:16.110Z,36.30
2022-12-03T15:56:42.728Z,36.38
2022-12-03T15:59:09.661Z,37.97
2022-12-03T16:01:36.683Z,36.42
2022-12-03T16:04:03.856Z,37.70
2022-12-03T16:06:31.063Z,36.83
2022-12-03T16:08:57.581Z,40.97
2022-12-03T16:11:24.107Z,37.05
2022-12-03T16:13:50.883Z,35.58
2022-12-03T16:16:17.427Z,37.33
2022-12-03T16:18:44.326Z,38.75
2022-12-03T16:21:10.768Z,36.13
2022-12-03T16:23:37.756Z,38.95
2022-12-03T16:26:04.594Z,44.33
2022-12-03T16:28:31.307Z,36.08
2022-12-03T16:30:58.002Z,34.72
2022-12-03T16:33:27.842Z,34.58
2022-12-03T16:35:55.237Z,40.15
2022-12-03T16:38:22.084Z,37.10
2022-12-03T16:40:49.387Z,38.20
2022-12-03T16:43:15.911Z,31.27
2022-12-03T16:45:46.086Z,32.53
2022-12-03T16:48:12.876Z,33.03
2022-12-03T16:50:40.164Z,36.05
2022-12-03T16:53:07.213Z,36.03
2022-12-03T16:55:34.536Z,34.92
2022-12-03T16:58:01.187Z,35.90
2022-12-03T17:00:28.030Z,31.25
2022-12-03T17:02:54.890Z,34.08
2022-12-03T17:05:21.468Z,34.45
2022-12-03T17:07:48.439Z,39.30
2022-12-03T17:10:15.063Z,33.22
2022-12-03T17:13:08.287Z,37.05
2022-12-03T17:15:29.328Z,33.97
2022-12-03T17:17:56.212Z,36.13
2022-12-03T17:20:23.205Z,33.70
2022-12-03T17:22:49.820Z,32.08
2022-12-03T17:25:17.002Z,32.10
2022-12-03T17:27:45.511Z,33.50
2022-12-03T17:30:12.795Z,33.55
2022-12-03T17:32:40.045Z,33.75
2022-12-03T17:35:07.639Z,28.95
2022-12-03T17:37:34.803Z,31.25
2022-12-03T17:40:02.400Z,34.97
2022-12-03T17:42:28.897Z,39.00
2022-12-03T17:44:56.617Z,34.28
2022-12-03T17:47:24.262Z,34.50
2022-12-03T17:49:51.497Z,31.50
2022-12-03T17:52:18.564Z,34.40
2022-12-03T17:55:09.648Z,38.17
2022-12-03T17:57:34.460Z,35.42
2022-12-03T18:00:01.256Z,35.25
2022-12-03T18:02:27.925Z,35.05
2022-12-03T18:04:57.499Z,33.75
2022-12-03T18:07:24.539Z,31.90
2022-12-03T18:09:51.411Z,32.17
2022-12-03T18:12:18.152Z,33.13
2022-12-03T18:14:44.971Z,34.25
2022-12-03T18:17:11.766Z,40.72
2022-12-03T18:19:38.738Z,36.88
2022-12-03T18:22:05.504Z,39.42
2022-12-03T18:24:32.868Z,40.95
2022-12-03T18:26:59.486Z,33.63
2022-12-03T18:29:27.363Z,39.30
2022-12-03T18:31:54.629Z,35.00
2022-12-03T18:34:21.285Z,37.50
2022-12-03T18:36:49.792Z,33.63
2022-12-03T18:39:36.065Z,36.63
2022-12-03T18:42:14.894Z,33.72
2022-12-03T18:44:46.334Z,36.45
2022-12-03T18:47:18.960Z,37.67
2022-12-03T18:49:46.170Z,35.90
2022-12-03T18:52:17.219Z,37.67
2022-12-03T18:54:43.992Z,33.15
2022-12-03T18:57:10.677Z,33.30
2022-12-03T18:59:37.918Z,34.90
2022-12-03T19:02:06.148Z,37.22
2022-12-03T19:04:32.984Z,37.17
2022-12-03T19:07:00.668Z,37.42
2022-12-03T19:09:29.924Z,36.90
2022-12-03T19:11:57.005Z,31.42
2022-12-03T19:14:23.619Z,36.20
2022-12-03T19:16:50.747Z,34.83
2022-12-03T19:19:17.415Z,35.30
2022-12-03T19:21:44.618Z,34.50
2022-12-03T19:24:26.756Z,38.45
2022-12-03T19:26:55.625Z,36.13
2022-12-03T19:29:23.048Z,39.05
2022-12-03T19:31:51.612Z,35.75
2022-12-03T19:34:19.445Z,35.63
2022-12-03T19:36:47.620Z,35.13
2022-12-03T19:39:14.161Z,34.60
2022-12-03T19:41:43.035Z,36.47
2022-12-03T19:44:14.297Z,39.35
2022-12-03T19:46:41.634Z,35.03
2022-12-03T19:49:08.878Z,31.90
2022-12-03T19:51:35.998Z,34.13
2022-12-03T19:54:07.696Z,34.97
2022-12-03T19:56:35.638Z,33.38
2022-12-03T19:59:02.815Z,32.78
2022-12-03T20:01:32.575Z,38.03
2022-12-03T20:04:01.357Z,33.72
2022-12-03T20:06:30.992Z,34.20
2022-12-03T20:09:03.656Z,33.23
2022-12-03T20:11:32.948Z,41.28
2022-12-03T20:14:02.079Z,35.00
2022-12-03T20:16:29.628Z,34.88
2022-12-03T20:18:59.058Z,35.78
2022-12-03T20:21:25.621Z,32.92
2022-12-03T20:23:53.165Z,32.67
2022-12-03T20:26:20.859Z,35.67
2022-12-03T20:28:49.177Z,32.17
2022-12-03T20:31:18.135Z,33.30
2022-12-03T20:33:47.400Z,34.53
2022-12-03T20:36:16.374Z,31.75
2022-12-03T20:38:43.474Z,31.30
2022-12-03T20:41:21.125Z,28.75
2022-12-03T20:43:50.848Z,32.65
2022-12-03T20:46:20.506Z,26.60
2022-12-03T20:48:48.034Z,24.55
2022-12-03T20:51:20.435Z,27.92
2022-12-03T20:53:48.947Z,23.63
2022-12-03T20:56:20.016Z,24.42
2022-12-03T20:58:48.648Z,23.02
2022-12-03T21:01:18.944Z,25.67
2022-12-03T21:03:46.504Z,25.17
2022-12-03T21:06:14.308Z,23.08
2022-12-03T21:08:42.973Z,23.55
2022-12-03T21:11:12.642Z,24.60
2022-12-03T21:13:43.446Z,24.85
2022-12-03T21:16:13.605Z,25.27
2022-12-03T21:18:40.635Z,26.00
2022-12-03T21:21:10.176Z,27.08
2022-12-03T21:23:37.524Z,26.98
2022-12-03T21:26:07.290Z,24.45
2022-12-03T21:28:34.191Z,25.75
2022-12-03T21:31:06.513Z,23.20
2022-12-03T21:33:33.943Z,21.92
2022-12-03T21:36:01.155Z,18.88
2022-12-03T21:38:29.243Z,20.90
2022-12-03T21:40:57.315Z,22.17
2022-12-03T21:43:24.739Z,22.83
2022-12-03T21:45:51.908Z,22.02
2022-12-03T21:48:21.728Z,19.67
2022-12-03T21:51:03.933Z,18.27
2022-12-03T21:53:32.055Z,18.80
2022-12-03T21:55:59.682Z,20.15
2022-12-03T21:58:26.329Z,19.70
2022-12-03T22:00:52.791Z,19.75
2022-12-03T22:03:19.655Z,20.00
2022-12-03T22:05:46.408Z,20.60
2022-12-03T22:08:13.739Z,18.52
2022-12-03T22:10:40.702Z,17.75
2022-12-03T22:13:07.269Z,21.48
2022-12-03T22:15:34.217Z,19.33
2022-12-03T22:18:00.745Z,18.80
2022-12-03T22:20:27.690Z,19.75
2022-12-03T22:22:54.747Z,21.17
2022-12-03T22:25:21.215Z,20.70
2022-12-03T22:27:47.978Z,20.23
2022-12-03T22:30:14.591Z,19.45
2022-12-03T22:32:41.087Z,18.02
2022-12-03T22:35:08.880Z,20.23
2022-12-03T22:37:35.498Z,19.02
2022-12-03T22:40:02.470Z,24.65
2022-12-03T22:42:29.007Z,22.65
2022-12-03T22:44:55.471Z,22.25
2022-12-03T22:47:22.479Z,17.63
2022-12-03T22:49:48.999Z,20.27
2022-12-03T22:52:15.977Z,21.30
2022-12-03T22:54:45.542Z,19.48
2022-12-03T22:57:13.121Z,24.33
2022-12-03T22:59:39.554Z,18.02
2022-12-03T23:02:06.175Z,19.63
2022-12-03T23:04:32.665Z,20.00
2022-12-03T23:06:59.149Z,18.85
2022-12-03T23:09:25.943Z,20.25
2022-12-03T23:11:52.896Z,22.50
2022-12-03T23:14:19.361Z,20.00
2022-12-03T23:16:45.813Z,20.90
2022-12-03T23:19:12.604Z,20.15
2022-12-03T23:21:39.073Z,20.63
2022-12-03T23:24:06.431Z,19.10
2022-12-03T23:26:36.039Z,20.38
2022-12-03T23:29:02.674Z,20.33
2022-12-03T23:31:31.288Z,20.13
2022-12-03T23:33:58.725Z,17.92
2022-12-03T23:36:27.615Z,20.88
2022-12-03T23:38:55.185Z,19.65
2022-12-03T23:41:23.337Z,19.05
2022-12-03T23:43:49.973Z,20.52
2022-12-03T23:46:23.315Z,19.92
2022-12-03T23:48:50.758Z,23.25
2022-12-03T23:51:20.428Z,19.45
2022-12-03T23:53:48.072Z,21.27
2022-12-03T23:56:19.562Z,21.40
2022-12-03T23:58:46.796Z,23.27
